Flight Track Log - Related Links

Times and Time Zones

All times are in EST time to prevent confusion due to time zone crossing. See the N27XP flight status page for this flight to view local times or setup timezone preferences in your user account.

Time Position Orientation Groundspeed Altitude Reporting Facility
EST Latitude Longitude Course Direction KTS MPH feet Rate Location/Type
Fri 11:35:57 PM 39.3667 -87.1661 125° Southeast 247 284 8,300  Level Indianapolis Center
Fri 11:36:58 PM 39.3253 -87.0794 122° Southeast 273 314 11,300 2,902 Climbing Indianapolis Center
Fri 11:37:59 PM 39.2803 -86.9889 123° Southeast 295 339 14,200 2,656 Climbing Indianapolis Center
Fri 11:39:00 PM 39.2350 -86.8939 122° Southeast 307 353 16,700 2,213 Climbing Indianapolis Center
Fri 11:40:00 PM 39.1242 -86.6191 128° Southeast  Level Estimated
Fri 11:40:01 PM 39.1850 -86.7950 123° Southeast 325 374 18,700  Level Indianapolis Center
Fri 11:41:02 PM 39.1339 -86.6928 123° Southeast 338 389 20,100 1,574 Climbing Indianapolis Center
Fri 11:42:03 PM 39.0797 -86.5814 122° Southeast 358 412 21,900 1,770 Climbing Indianapolis Center
Fri 11:43:04 PM 39.0231 -86.4672 123° Southeast 377 434 23,700 1,770 Climbing Indianapolis Center
Fri 11:44:05 PM 38.9639 -86.3486 123° Southeast 392 451 25,500 1,672 Climbing Indianapolis Center
Fri 11:45:06 PM 38.8903 -86.2008 123° Southeast 408 470 27,100 1,230 Climbing Indianapolis Center
Fri 11:46:07 PM 38.8347 -86.0833 121° Southeast 426 490 28,000 1,033 Climbing Indianapolis Center
Fri 11:47:08 PM 38.7689 -85.9442 121° Southeast 450 518 29,200 1,180 Climbing Indianapolis Center
Fri 11:48:09 PM 38.6956 -85.7894 121° Southeast 461 531 30,400 1,131 Climbing Indianapolis Center
Fri 11:49:10 PM 38.6281 -85.6467 121° Southeast 470 541 31,500 1,041 Climbing Indianapolis Center
Fri 11:50:10 PM 38.5658 -85.5125 121° Southeast 473 544 32,500 942 Climbing Indianapolis Center
Fri 11:51:11 PM 38.4950 -85.3667 122° Southeast 479 551 33,400 984 Climbing Indianapolis Center
Fri 11:52:12 PM 38.4239 -85.2172 121° Southeast 487 560 34,500 787 Climbing Indianapolis Center
Fri 11:53:13 PM 38.3481 -85.0622 122° Southeast 488 562 35,000 246 Climbing Indianapolis Center
Fri 11:54:14 PM 38.2628 -84.8811 121° Southeast 511 588 35,000  Level Indianapolis Center
Fri 11:55:15 PM 38.1839 -84.7247 123° Southeast 524 603 35,000  Level Indianapolis Center
Fri 11:56:16 PM 38.1064 -84.5644 122° Southeast 530 610 35,000  Level Indianapolis Center
Fri 11:57:16 PM 38.0286 -84.4103 123° Southeast 520 598 35,000  Level Indianapolis Center
Fri 11:58:17 PM 37.9519 -84.2547 122° Southeast 521 600 35,000  Level Indianapolis Center
Fri 11:59:18 PM 37.8747 -84.1028 123° Southeast 515 593 35,000  Level Indianapolis Center
Sat 12:00:19 AM 37.7983 -83.9481 122° Southeast 515 593 35,000  Level Indianapolis Center
Sat 12:01:20 AM 37.7225 -83.7933 122° Southeast 517 595 35,000  Level Indianapolis Center
Sat 12:02:20 AM 37.6447 -83.6422 123° Southeast 513 590 35,000  Level Indianapolis Center
Sat 12:03:21 AM 37.5681 -83.4908 123° Southeast 512 589 35,000  Level Indianapolis Center
Sat 12:04:22 AM 37.4911 -83.3394 123° Southeast 510 587 35,000  Level Indianapolis Center
Sat 12:05:23 AM 37.4142 -83.1892 123° Southeast 509 586 35,000  Level Indianapolis Center
Sat 12:06:24 AM 37.3372 -83.0394 123° Southeast 508 585 35,000  Level Indianapolis Center
Sat 12:07:24 AM 37.2594 -82.8894 123° Southeast 508 585 35,000  Level Indianapolis Center
Sat 12:08:25 AM 37.1811 -82.7389 123° Southeast 509 586 35,000  Level Indianapolis Center
Sat 12:09:26 AM 37.1039 -82.5886 123° Southeast 507 583 35,000  Level Indianapolis Center
Sat 12:10:27 AM 37.0258 -82.4417 124° Southeast 502 578 35,000  Level Indianapolis Center
Sat 12:11:27 AM 36.9481 -82.2956 124° Southeast 501 577 35,000  Level Indianapolis Center
Sat 12:12:28 AM 36.8700 -82.1486 124° Southeast 504 580 35,000  Level Indianapolis Center
Sat 12:13:29 AM 36.7925 -82.0014 123° Southeast 505 581 35,000 -590 Level Indianapolis Center
Sat 12:14:30 AM 36.7144 -81.8556 124° Southeast 505 581 33,800 -1,537 Descending Indianapolis Center
Sat 12:15:30 AM 36.6356 -81.7094 124° Southeast 506 582 31,900 -1,388 Descending Indianapolis Center
Sat 12:16:31 AM 36.5575 -81.5647 124° Southeast 504 580 31,000 -450 Descending Indianapolis Center
Sat 12:17:30 AM 36.4828 -81.4206 123° Southeast 505 581 31,000 -101 Level Atlanta Center
Sat 12:18:30 AM 36.4047 -81.2761 124° Southeast 505 581 30,800 -950 Descending Atlanta Center
Sat 12:19:30 AM 36.3175 -81.1192 125° Southeast 505 581 29,100 -1,900 Descending Atlanta Center
Sat 12:21:30 AM 36.1625 -80.8369 124° Southeast 505 581 25,100 -1,367 Descending Atlanta Center
Sat 12:22:30 AM 36.0881 -80.7011 124° Southeast 500 575 25,000 -500 Descending Atlanta Center
Sat 12:23:30 AM 36.0156 -80.5731 125° Southeast 501 577 24,100 -500 Descending Atlanta Center
Sat 12:24:30 AM 35.9319 -80.4253 125° Southeast 501 577 24,000 -50 Descending Atlanta Center
Sat 12:25:30 AM 35.8572 -80.2903 124° Southeast 487 560 24,000  Level Atlanta Center
Sat 12:26:30 AM 35.7797 -80.1506 124° Southeast 481 554 24,000  Level Atlanta Center
Sat 12:27:30 AM 35.7067 -80.0186 124° Southeast 481 554 24,000 -1,477 Level Atlanta Center
Sat 12:29:45 AM 35.5569 -79.7567 125° Southeast 453 521 19,200 -1,929 Descending Washington Center
Sat 12:30:46 AM 35.4733 -79.6122 125° Southeast 435 501 17,700 -1,707 Descending Washington Center
Sat 12:31:48 AM 35.4050 -79.4897 124° Southeast 435 501 15,700 -2,311 Descending Washington Center
Sat 12:32:48 AM 35.3694 -79.3753 111° Southeast 369 425 13,000 -2,874 Descending Washington Center
Sat 12:33:47 AM 35.3992 -79.2744 70° East 315 362 10,000 -3,025 Descending Washington Center
Sat 12:34:49 AM 35.4472 -79.1983 52° Northeast 283 326 6,900 -3,000 Descending Washington Center
Sat 12:35:47 AM 35.4258 -79.1314 111° Southeast 267 307 4,000 -1,983 Descending Washington Center
Sat 12:36:47 AM 35.3928 -79.1756 227° Southwest 179 206 3,000 -488 Descending Washington Center
Sat 12:37:50 AM 35.3717 -79.2147 237° Southwest 142 163 3,000 -49 Level Washington Center
Sat 12:38:49 AM 35.3517 -79.2550 239° Southwest 139 160 2,900 -102 Descending Washington Center

Login

Don't have an account? Register now (free) for customized features, flight alerts, and more!